sensor_id;sensor_type;location;lat;lon;timestamp;P1;durP1;ratioP1;P2;durP2;ratioP2
21000;SDS011;10658;50.920;12.238;2023-06-24T00:01:02;11.50;;;6.03;;
21000;SDS011;10658;50.920;12.238;2023-06-24T00:05:03;14.50;;;6.60;;
21000;SDS011;10658;50.920;12.238;2023-06-24T00:09:05;15.88;;;7.47;;
21000;SDS011;10658;50.920;12.238;2023-06-24T00:13:07;12.38;;;7.75;;
21000;SDS011;10658;50.920;12.238;2023-06-24T00:17:08;14.40;;;8.07;;
21000;SDS011;10658;50.920;12.238;2023-06-24T00:21:09;14.25;;;6.97;;
21000;SDS011;10658;50.920;12.238;2023-06-24T00:25:10;13.25;;;7.78;;
21000;SDS011;10658;50.920;12.238;2023-06-24T00:29:11;14.40;;;6.38;;
21000;SDS011;10658;50.920;12.238;2023-06-24T00:33:11;9.80;;;6.18;;
21000;SDS011;10658;50.920;12.238;2023-06-24T00:37:14;10.63;;;6.03;;
21000;SDS011;10658;50.920;12.238;2023-06-24T00:41:16;12.05;;;5.25;;
21000;SDS011;10658;50.920;12.238;2023-06-24T00:45:20;12.25;;;6.63;;
21000;SDS011;10658;50.920;12.238;2023-06-24T00:49:21;15.10;;;8.70;;
21000;SDS011;10658;50.920;12.238;2023-06-24T00:53:22;11.43;;;6.43;;
21000;SDS011;10658;50.920;12.238;2023-06-24T00:57:24;11.35;;;6.25;;
21000;SDS011;10658;50.920;12.238;2023-06-24T01:01:26;13.82;;;7.20;;
21000;SDS011;10658;50.920;12.238;2023-06-24T01:05:35;14.00;;;6.88;;
21000;SDS011;10658;50.920;12.238;2023-06-24T01:09:36;12.18;;;6.63;;
21000;SDS011;10658;50.920;12.238;2023-06-24T01:13:37;13.68;;;6.47;;
21000;SDS011;10658;50.920;12.238;2023-06-24T01:22:17;16.65;;;8.88;;
21000;SDS011;10658;50.920;12.238;2023-06-24T01:30:45;15.35;;;7.63;;
21000;SDS011;10658;50.920;12.238;2023-06-24T01:35:02;12.10;;;5.47;;
21000;SDS011;10658;50.920;12.238;2023-06-24T01:39:10;12.00;;;6.10;;
21000;SDS011;10658;50.920;12.238;2023-06-24T01:43:18;8.13;;;5.30;;
21000;SDS011;10658;50.920;12.238;2023-06-24T01:47:21;12.85;;;6.03;;
21000;SDS011;10658;50.920;12.238;2023-06-24T01:51:25;14.30;;;6.75;;
21000;SDS011;10658;50.920;12.238;2023-06-24T01:55:27;22.92;;;9.02;;
21000;SDS011;10658;50.920;12.238;2023-06-24T01:59:30;11.50;;;5.50;;
21000;SDS011;10658;50.920;12.238;2023-06-24T02:03:32;17.35;;;6.82;;
21000;SDS011;10658;50.920;12.238;2023-06-24T02:07:33;12.27;;;5.60;;
21000;SDS011;10658;50.920;12.238;2023-06-24T02:11:35;9.60;;;4.93;;
21000;SDS011;10658;50.920;12.238;2023-06-24T02:15:38;10.70;;;4.63;;
21000;SDS011;10658;50.920;12.238;2023-06-24T02:19:39;11.98;;;5.45;;
21000;SDS011;10658;50.920;12.238;2023-06-24T02:23:42;9.48;;;5.05;;
21000;SDS011;10658;50.920;12.238;2023-06-24T02:27:43;6.55;;;5.00;;
21000;SDS011;10658;50.920;12.238;2023-06-24T02:31:44;11.98;;;4.70;;
21000;SDS011;10658;50.920;12.238;2023-06-24T02:35:46;8.43;;;4.75;;
21000;SDS011;10658;50.920;12.238;2023-06-24T02:39:47;9.60;;;5.35;;
21000;SDS011;10658;50.920;12.238;2023-06-24T02:43:48;13.20;;;5.53;;
21000;SDS011;10658;50.920;12.238;2023-06-24T02:47:49;11.00;;;4.78;;
21000;SDS011;10658;50.920;12.238;2023-06-24T02:51:51;10.30;;;5.63;;
21000;SDS011;10658;50.920;12.238;2023-06-24T02:55:52;14.25;;;6.55;;
21000;SDS011;10658;50.920;12.238;2023-06-24T02:59:54;12.95;;;5.60;;
21000;SDS011;10658;50.920;12.238;2023-06-24T03:04:00;13.02;;;6.05;;
21000;SDS011;10658;50.920;12.238;2023-06-24T03:08:01;8.35;;;4.78;;
21000;SDS011;10658;50.920;12.238;2023-06-24T03:12:05;23.65;;;6.13;;
21000;SDS011;10658;50.920;12.238;2023-06-24T03:16:13;9.43;;;4.07;;
21000;SDS011;10658;50.920;12.238;2023-06-24T03:20:25;16.38;;;4.35;;
21000;SDS011;10658;50.920;12.238;2023-06-24T03:24:30;7.70;;;3.45;;
21000;SDS011;10658;50.920;12.238;2023-06-24T03:28:31;11.43;;;4.60;;
21000;SDS011;10658;50.920;12.238;2023-06-24T03:32:42;7.00;;;3.90;;
21000;SDS011;10658;50.920;12.238;2023-06-24T03:36:48;9.43;;;4.13;;
21000;SDS011;10658;50.920;12.238;2023-06-24T03:40:49;6.75;;;3.33;;
21000;SDS011;10658;50.920;12.238;2023-06-24T03:44:50;9.40;;;4.05;;
21000;SDS011;10658;50.920;12.238;2023-06-24T03:48:51;13.25;;;4.63;;
21000;SDS011;10658;50.920;12.238;2023-06-24T03:52:52;8.90;;;4.20;;
21000;SDS011;10658;50.920;12.238;2023-06-24T03:56:53;11.90;;;4.07;;
21000;SDS011;10658;50.920;12.238;2023-06-24T04:00:54;31.40;;;4.78;;
21000;SDS011;10658;50.920;12.238;2023-06-24T04:04:56;6.55;;;3.63;;
21000;SDS011;10658;50.920;12.238;2023-06-24T04:09:00;5.90;;;3.90;;
21000;SDS011;10658;50.920;12.238;2023-06-24T04:13:02;18.27;;;7.22;;
21000;SDS011;10658;50.920;12.238;2023-06-24T04:17:03;8.57;;;4.25;;
21000;SDS011;10658;50.920;12.238;2023-06-24T04:21:04;7.43;;;4.05;;
21000;SDS011;10658;50.920;12.238;2023-06-24T04:25:07;7.40;;;3.38;;
21000;SDS011;10658;50.920;12.238;2023-06-24T04:29:09;4.35;;;3.45;;
21000;SDS011;10658;50.920;12.238;2023-06-24T04:33:10;3.85;;;3.30;;
21000;SDS011;10658;50.920;12.238;2023-06-24T04:37:11;5.45;;;4.03;;
21000;SDS011;10658;50.920;12.238;2023-06-24T04:41:12;4.63;;;3.65;;
21000;SDS011;10658;50.920;12.238;2023-06-24T04:45:13;5.70;;;4.30;;
21000;SDS011;10658;50.920;12.238;2023-06-24T04:49:14;7.22;;;3.72;;
21000;SDS011;10658;50.920;12.238;2023-06-24T04:53:14;8.55;;;4.65;;
21000;SDS011;10658;50.920;12.238;2023-06-24T04:57:28;4.78;;;3.75;;
21000;SDS011;10658;50.920;12.238;2023-06-24T05:01:30;6.25;;;4.97;;
21000;SDS011;10658;50.920;12.238;2023-06-24T05:05:31;8.20;;;5.57;;
21000;SDS011;10658;50.920;12.238;2023-06-24T05:09:32;9.73;;;5.68;;
21000;SDS011;10658;50.920;12.238;2023-06-24T05:13:32;7.43;;;5.55;;
21000;SDS011;10658;50.920;12.238;2023-06-24T05:17:33;6.75;;;5.13;;
21000;SDS011;10658;50.920;12.238;2023-06-24T05:21:34;7.18;;;5.38;;
21000;SDS011;10658;50.920;12.238;2023-06-24T05:25:35;9.88;;;5.80;;
21000;SDS011;10658;50.920;12.238;2023-06-24T05:29:36;9.52;;;6.15;;
21000;SDS011;10658;50.920;12.238;2023-06-24T05:33:36;6.82;;;5.47;;
21000;SDS011;10658;50.920;12.238;2023-06-24T05:37:37;10.18;;;5.40;;
21000;SDS011;10658;50.920;12.238;2023-06-24T05:41:38;5.57;;;4.88;;
21000;SDS011;10658;50.920;12.238;2023-06-24T05:45:39;21.38;;;9.60;;
21000;SDS011;10658;50.920;12.238;2023-06-24T05:49:40;19.20;;;10.05;;
21000;SDS011;10658;50.920;12.238;2023-06-24T05:53:41;17.08;;;10.52;;
21000;SDS011;10658;50.920;12.238;2023-06-24T05:57:41;19.08;;;11.63;;
21000;SDS011;10658;50.920;12.238;2023-06-24T06:01:42;16.30;;;10.40;;
21000;SDS011;10658;50.920;12.238;2023-06-24T06:05:43;14.10;;;10.02;;
21000;SDS011;10658;50.920;12.238;2023-06-24T06:09:43;18.77;;;11.75;;
21000;SDS011;10658;50.920;12.238;2023-06-24T06:13:44;17.42;;;10.38;;
21000;SDS011;10658;50.920;12.238;2023-06-24T06:17:45;17.30;;;10.85;;
21000;SDS011;10658;50.920;12.238;2023-06-24T06:21:46;13.27;;;9.68;;
21000;SDS011;10658;50.920;12.238;2023-06-24T06:25:49;14.50;;;10.05;;
21000;SDS011;10658;50.920;12.238;2023-06-24T06:29:50;15.88;;;10.70;;
21000;SDS011;10658;50.920;12.238;2023-06-24T06:33:51;18.08;;;10.55;;
21000;SDS011;10658;50.920;12.238;2023-06-24T06:37:52;15.52;;;9.93;;
21000;SDS011;10658;50.920;12.238;2023-06-24T06:41:54;15.70;;;9.57;;
21000;SDS011;10658;50.920;12.238;2023-06-24T06:45:58;11.55;;;8.50;;
21000;SDS011;10658;50.920;12.238;2023-06-24T06:49:59;11.25;;;8.10;;
21000;SDS011;10658;50.920;12.238;2023-06-24T06:53:59;16.40;;;8.85;;
21000;SDS011;10658;50.920;12.238;2023-06-24T06:58:00;15.10;;;9.63;;
21000;SDS011;10658;50.920;12.238;2023-06-24T07:02:01;14.50;;;8.88;;
21000;SDS011;10658;50.920;12.238;2023-06-24T07:06:02;11.50;;;8.55;;
21000;SDS011;10658;50.920;12.238;2023-06-24T07:10:03;12.18;;;7.55;;
21000;SDS011;10658;50.920;12.238;2023-06-24T07:14:04;11.13;;;7.65;;
21000;SDS011;10658;50.920;12.238;2023-06-24T07:18:04;11.65;;;7.07;;
21000;SDS011;10658;50.920;12.238;2023-06-24T07:22:05;16.52;;;7.93;;
21000;SDS011;10658;50.920;12.238;2023-06-24T07:26:06;9.77;;;7.10;;
21000;SDS011;10658;50.920;12.238;2023-06-24T07:30:06;11.45;;;7.13;;
21000;SDS011;10658;50.920;12.238;2023-06-24T07:34:08;10.13;;;6.78;;
21000;SDS011;10658;50.920;12.238;2023-06-24T07:38:09;11.20;;;8.35;;
21000;SDS011;10658;50.920;12.238;2023-06-24T07:42:10;10.02;;;7.57;;
21000;SDS011;10658;50.920;12.238;2023-06-24T07:46:10;12.63;;;8.02;;
21000;SDS011;10658;50.920;12.238;2023-06-24T07:50:11;11.20;;;7.10;;
21000;SDS011;10658;50.920;12.238;2023-06-24T07:54:12;12.40;;;7.35;;
21000;SDS011;10658;50.920;12.238;2023-06-24T07:58:13;7.05;;;6.00;;
21000;SDS011;10658;50.920;12.238;2023-06-24T08:02:13;7.20;;;6.05;;
21000;SDS011;10658;50.920;12.238;2023-06-24T08:06:14;10.82;;;6.45;;
21000;SDS011;10658;50.920;12.238;2023-06-24T08:10:15;8.55;;;6.38;;
21000;SDS011;10658;50.920;12.238;2023-06-24T08:14:19;10.85;;;6.70;;
21000;SDS011;10658;50.920;12.238;2023-06-24T08:18:21;7.03;;;5.05;;
21000;SDS011;10658;50.920;12.238;2023-06-24T08:22:22;7.75;;;4.93;;
21000;SDS011;10658;50.920;12.238;2023-06-24T08:26:23;8.85;;;4.85;;
21000;SDS011;10658;50.920;12.238;2023-06-24T08:30:24;8.23;;;5.15;;
21000;SDS011;10658;50.920;12.238;2023-06-24T08:34:25;8.48;;;4.95;;
21000;SDS011;10658;50.920;12.238;2023-06-24T08:38:25;8.27;;;5.43;;
21000;SDS011;10658;50.920;12.238;2023-06-24T08:42:26;7.28;;;4.97;;
21000;SDS011;10658;50.920;12.238;2023-06-24T08:46:27;9.35;;;5.63;;
21000;SDS011;10658;50.920;12.238;2023-06-24T08:50:35;8.70;;;5.65;;
21000;SDS011;10658;50.920;12.238;2023-06-24T08:54:40;6.78;;;4.15;;
21000;SDS011;10658;50.920;12.238;2023-06-24T08:58:41;8.32;;;4.45;;
21000;SDS011;10658;50.920;12.238;2023-06-24T09:02:42;7.28;;;4.65;;
21000;SDS011;10658;50.920;12.238;2023-06-24T09:06:43;6.20;;;4.20;;
21000;SDS011;10658;50.920;12.238;2023-06-24T09:10:45;9.52;;;4.60;;
21000;SDS011;10658;50.920;12.238;2023-06-24T09:14:52;6.75;;;5.30;;
21000;SDS011;10658;50.920;12.238;2023-06-24T09:18:53;6.15;;;4.57;;
21000;SDS011;10658;50.920;12.238;2023-06-24T09:22:57;9.45;;;4.65;;
21000;SDS011;10658;50.920;12.238;2023-06-24T09:26:59;5.25;;;4.47;;
21000;SDS011;10658;50.920;12.238;2023-06-24T09:31:07;5.40;;;4.13;;
21000;SDS011;10658;50.920;12.238;2023-06-24T09:35:09;5.80;;;4.70;;
21000;SDS011;10658;50.920;12.238;2023-06-24T09:39:10;5.72;;;4.30;;
21000;SDS011;10658;50.920;12.238;2023-06-24T09:43:16;5.45;;;4.68;;
21000;SDS011;10658;50.920;12.238;2023-06-24T09:47:20;9.82;;;5.60;;
21000;SDS011;10658;50.920;12.238;2023-06-24T09:51:25;8.20;;;4.45;;
21000;SDS011;10658;50.920;12.238;2023-06-24T09:55:27;7.47;;;3.80;;
21000;SDS011;10658;50.920;12.238;2023-06-24T09:59:28;5.78;;;4.30;;
21000;SDS011;10658;50.920;12.238;2023-06-24T10:03:34;5.00;;;3.97;;
21000;SDS011;10658;50.920;12.238;2023-06-24T10:07:36;4.63;;;3.85;;
21000;SDS011;10658;50.920;12.238;2023-06-24T10:11:39;5.30;;;4.13;;
21000;SDS011;10658;50.920;12.238;2023-06-24T10:15:40;5.47;;;3.83;;
21000;SDS011;10658;50.920;12.238;2023-06-24T10:19:41;4.63;;;3.72;;
21000;SDS011;10658;50.920;12.238;2023-06-24T10:23:43;7.38;;;4.28;;
21000;SDS011;10658;50.920;12.238;2023-06-24T10:27:55;5.22;;;3.75;;
21000;SDS011;10658;50.920;12.238;2023-06-24T10:31:57;9.30;;;3.97;;
21000;SDS011;10658;50.920;12.238;2023-06-24T10:36:02;5.97;;;3.88;;
21000;SDS011;10658;50.920;12.238;2023-06-24T10:40:03;4.70;;;3.95;;
21000;SDS011;10658;50.920;12.238;2023-06-24T10:44:14;5.53;;;3.42;;
21000;SDS011;10658;50.920;12.238;2023-06-24T10:48:16;4.85;;;3.90;;
21000;SDS011;10658;50.920;12.238;2023-06-24T10:52:20;5.68;;;3.60;;
21000;SDS011;10658;50.920;12.238;2023-06-24T10:56:22;5.65;;;4.55;;
21000;SDS011;10658;50.920;12.238;2023-06-24T11:00:30;9.75;;;4.90;;
21000;SDS011;10658;50.920;12.238;2023-06-24T11:04:30;9.70;;;3.70;;
21000;SDS011;10658;50.920;12.238;2023-06-24T11:08:31;4.60;;;3.25;;
21000;SDS011;10658;50.920;12.238;2023-06-24T11:12:33;5.03;;;3.60;;
21000;SDS011;10658;50.920;12.238;2023-06-24T11:16:35;4.97;;;4.07;;
21000;SDS011;10658;50.920;12.238;2023-06-24T11:20:37;7.65;;;3.78;;
21000;SDS011;10658;50.920;12.238;2023-06-24T11:24:38;5.15;;;3.50;;
21000;SDS011;10658;50.920;12.238;2023-06-24T11:28:39;4.65;;;3.10;;
21000;SDS011;10658;50.920;12.238;2023-06-24T11:32:41;7.00;;;3.80;;
21000;SDS011;10658;50.920;12.238;2023-06-24T11:36:43;4.32;;;3.70;;
21000;SDS011;10658;50.920;12.238;2023-06-24T11:40:47;7.55;;;3.90;;
21000;SDS011;10658;50.920;12.238;2023-06-24T11:44:48;5.25;;;3.75;;
21000;SDS011;10658;50.920;12.238;2023-06-24T11:48:49;4.25;;;3.65;;
21000;SDS011;10658;50.920;12.238;2023-06-24T11:52:50;5.35;;;3.92;;
21000;SDS011;10658;50.920;12.238;2023-06-24T11:56:52;4.05;;;3.65;;
21000;SDS011;10658;50.920;12.238;2023-06-24T12:00:53;4.43;;;3.45;;
21000;SDS011;10658;50.920;12.238;2023-06-24T12:04:57;4.97;;;3.22;;
21000;SDS011;10658;50.920;12.238;2023-06-24T12:08:57;4.32;;;3.65;;
21000;SDS011;10658;50.920;12.238;2023-06-24T12:12:58;5.63;;;3.65;;
21000;SDS011;10658;50.920;12.238;2023-06-24T12:17:00;4.82;;;3.65;;
21000;SDS011;10658;50.920;12.238;2023-06-24T12:21:02;3.97;;;3.22;;
21000;SDS011;10658;50.920;12.238;2023-06-24T12:25:03;4.03;;;3.67;;
21000;SDS011;10658;50.920;12.238;2023-06-24T12:29:04;6.45;;;4.25;;
21000;SDS011;10658;50.920;12.238;2023-06-24T12:33:05;3.60;;;3.28;;
21000;SDS011;10658;50.920;12.238;2023-06-24T12:37:08;4.03;;;3.63;;
21000;SDS011;10658;50.920;12.238;2023-06-24T12:41:09;3.97;;;3.28;;
21000;SDS011;10658;50.920;12.238;2023-06-24T12:45:10;3.95;;;3.10;;
21000;SDS011;10658;50.920;12.238;2023-06-24T12:49:10;4.65;;;3.30;;
21000;SDS011;10658;50.920;12.238;2023-06-24T12:53:13;5.05;;;3.35;;
21000;SDS011;10658;50.920;12.238;2023-06-24T12:57:15;7.43;;;3.80;;
21000;SDS011;10658;50.920;12.238;2023-06-24T13:01:16;5.75;;;2.95;;
21000;SDS011;10658;50.920;12.238;2023-06-24T13:05:17;3.85;;;2.67;;
21000;SDS011;10658;50.920;12.238;2023-06-24T13:09:18;4.18;;;3.13;;
21000;SDS011;10658;50.920;12.238;2023-06-24T13:13:19;4.15;;;2.88;;
21000;SDS011;10658;50.920;12.238;2023-06-24T13:17:20;3.85;;;3.10;;
21000;SDS011;10658;50.920;12.238;2023-06-24T13:21:20;8.50;;;3.67;;
21000;SDS011;10658;50.920;12.238;2023-06-24T13:25:21;4.80;;;3.20;;
21000;SDS011;10658;50.920;12.238;2023-06-24T13:29:22;4.18;;;3.05;;
21000;SDS011;10658;50.920;12.238;2023-06-24T13:33:23;3.75;;;2.92;;
21000;SDS011;10658;50.920;12.238;2023-06-24T13:37:24;3.95;;;2.92;;
21000;SDS011;10658;50.920;12.238;2023-06-24T13:41:25;4.32;;;3.10;;
21000;SDS011;10658;50.920;12.238;2023-06-24T13:45:29;3.60;;;3.05;;
21000;SDS011;10658;50.920;12.238;2023-06-24T13:49:30;4.05;;;3.40;;
21000;SDS011;10658;50.920;12.238;2023-06-24T13:53:30;3.30;;;3.00;;
21000;SDS011;10658;50.920;12.238;2023-06-24T13:57:31;4.28;;;3.38;;
21000;SDS011;10658;50.920;12.238;2023-06-24T14:01:32;3.28;;;2.97;;
21000;SDS011;10658;50.920;12.238;2023-06-24T14:05:33;3.63;;;3.03;;
21000;SDS011;10658;50.920;12.238;2023-06-24T14:09:37;2.92;;;2.65;;
21000;SDS011;10658;50.920;12.238;2023-06-24T14:13:39;5.55;;;3.17;;
21000;SDS011;10658;50.920;12.238;2023-06-24T14:17:41;5.72;;;3.28;;
21000;SDS011;10658;50.920;12.238;2023-06-24T14:21:42;3.65;;;3.17;;
21000;SDS011;10658;50.920;12.238;2023-06-24T14:25:42;4.53;;;3.05;;
21000;SDS011;10658;50.920;12.238;2023-06-24T14:29:43;3.60;;;2.85;;
21000;SDS011;10658;50.920;12.238;2023-06-24T14:33:44;2.90;;;2.63;;
21000;SDS011;10658;50.920;12.238;2023-06-24T14:37:45;4.32;;;3.08;;
21000;SDS011;10658;50.920;12.238;2023-06-24T14:41:45;5.18;;;2.95;;
21000;SDS011;10658;50.920;12.238;2023-06-24T14:45:46;4.20;;;3.08;;
21000;SDS011;10658;50.920;12.238;2023-06-24T14:49:47;4.10;;;2.92;;
21000;SDS011;10658;50.920;12.238;2023-06-24T14:53:48;3.65;;;3.35;;
21000;SDS011;10658;50.920;12.238;2023-06-24T14:57:49;4.03;;;2.78;;
21000;SDS011;10658;50.920;12.238;2023-06-24T15:01:50;4.00;;;3.20;;
21000;SDS011;10658;50.920;12.238;2023-06-24T15:05:50;5.50;;;2.95;;
21000;SDS011;10658;50.920;12.238;2023-06-24T15:09:51;3.08;;;2.78;;
21000;SDS011;10658;50.920;12.238;2023-06-24T15:13:52;4.60;;;3.03;;
21000;SDS011;10658;50.920;12.238;2023-06-24T15:17:52;5.93;;;2.80;;
21000;SDS011;10658;50.920;12.238;2023-06-24T15:21:53;8.43;;;3.28;;
21000;SDS011;10658;50.920;12.238;2023-06-24T15:25:54;5.32;;;3.45;;
21000;SDS011;10658;50.920;12.238;2023-06-24T15:29:55;5.00;;;3.22;;
21000;SDS011;10658;50.920;12.238;2023-06-24T15:33:55;3.10;;;2.80;;
21000;SDS011;10658;50.920;12.238;2023-06-24T15:37:56;4.60;;;3.20;;
21000;SDS011;10658;50.920;12.238;2023-06-24T15:41:57;4.70;;;2.83;;
21000;SDS011;10658;50.920;12.238;2023-06-24T15:45:58;3.83;;;3.33;;
21000;SDS011;10658;50.920;12.238;2023-06-24T15:49:59;3.85;;;2.90;;
21000;SDS011;10658;50.920;12.238;2023-06-24T15:54:00;4.50;;;2.60;;
21000;SDS011;10658;50.920;12.238;2023-06-24T15:58:01;4.25;;;2.88;;
21000;SDS011;10658;50.920;12.238;2023-06-24T16:02:02;3.97;;;2.72;;
21000;SDS011;10658;50.920;12.238;2023-06-24T16:06:03;4.38;;;2.67;;
21000;SDS011;10658;50.920;12.238;2023-06-24T16:10:04;3.40;;;2.95;;
21000;SDS011;10658;50.920;12.238;2023-06-24T16:14:06;5.35;;;2.72;;
21000;SDS011;10658;50.920;12.238;2023-06-24T16:18:07;4.13;;;2.65;;
21000;SDS011;10658;50.920;12.238;2023-06-24T16:22:08;3.50;;;3.08;;
21000;SDS011;10658;50.920;12.238;2023-06-24T16:26:09;2.55;;;2.35;;
21000;SDS011;10658;50.920;12.238;2023-06-24T16:30:09;6.18;;;2.72;;
21000;SDS011;10658;50.920;12.238;2023-06-24T16:34:10;3.10;;;2.63;;
21000;SDS011;10658;50.920;12.238;2023-06-24T16:38:11;3.83;;;3.17;;
21000;SDS011;10658;50.920;12.238;2023-06-24T16:42:12;4.00;;;2.90;;
21000;SDS011;10658;50.920;12.238;2023-06-24T16:46:13;5.20;;;2.92;;
21000;SDS011;10658;50.920;12.238;2023-06-24T16:50:14;4.40;;;2.63;;
21000;SDS011;10658;50.920;12.238;2023-06-24T16:54:14;4.22;;;3.70;;
21000;SDS011;10658;50.920;12.238;2023-06-24T16:58:16;6.18;;;3.30;;
21000;SDS011;10658;50.920;12.238;2023-06-24T17:02:17;4.38;;;3.53;;
21000;SDS011;10658;50.920;12.238;2023-06-24T17:06:18;3.70;;;3.03;;
21000;SDS011;10658;50.920;12.238;2023-06-24T17:10:19;3.47;;;3.17;;
21000;SDS011;10658;50.920;12.238;2023-06-24T17:14:19;4.72;;;3.45;;
21000;SDS011;10658;50.920;12.238;2023-06-24T17:18:20;5.25;;;3.75;;
21000;SDS011;10658;50.920;12.238;2023-06-24T17:22:21;3.35;;;2.72;;
21000;SDS011;10658;50.920;12.238;2023-06-24T17:26:22;3.80;;;3.22;;
21000;SDS011;10658;50.920;12.238;2023-06-24T17:30:23;6.25;;;3.65;;
21000;SDS011;10658;50.920;12.238;2023-06-24T17:34:24;4.68;;;3.78;;
21000;SDS011;10658;50.920;12.238;2023-06-24T17:38:26;5.60;;;3.60;;
21000;SDS011;10658;50.920;12.238;2023-06-24T17:42:27;4.00;;;3.30;;
21000;SDS011;10658;50.920;12.238;2023-06-24T17:46:27;5.28;;;3.25;;
21000;SDS011;10658;50.920;12.238;2023-06-24T17:50:30;4.82;;;2.90;;
21000;SDS011;10658;50.920;12.238;2023-06-24T17:54:32;3.08;;;2.60;;
21000;SDS011;10658;50.920;12.238;2023-06-24T17:58:33;3.60;;;2.88;;
21000;SDS011;10658;50.920;12.238;2023-06-24T18:02:34;3.88;;;3.15;;
21000;SDS011;10658;50.920;12.238;2023-06-24T18:06:35;4.47;;;2.83;;
21000;SDS011;10658;50.920;12.238;2023-06-24T18:10:36;3.65;;;2.97;;
21000;SDS011;10658;50.920;12.238;2023-06-24T18:14:38;3.28;;;2.70;;
21000;SDS011;10658;50.920;12.238;2023-06-24T18:18:39;3.85;;;2.80;;
21000;SDS011;10658;50.920;12.238;2023-06-24T18:22:40;4.32;;;2.85;;
21000;SDS011;10658;50.920;12.238;2023-06-24T18:26:40;3.97;;;3.05;;
21000;SDS011;10658;50.920;12.238;2023-06-24T18:30:41;6.60;;;3.50;;
21000;SDS011;10658;50.920;12.238;2023-06-24T18:34:42;4.03;;;2.83;;
21000;SDS011;10658;50.920;12.238;2023-06-24T18:38:43;7.53;;;3.40;;
21000;SDS011;10658;50.920;12.238;2023-06-24T18:42:44;3.58;;;2.90;;
21000;SDS011;10658;50.920;12.238;2023-06-24T18:46:45;4.80;;;3.05;;
21000;SDS011;10658;50.920;12.238;2023-06-24T18:50:45;3.47;;;3.10;;
21000;SDS011;10658;50.920;12.238;2023-06-24T18:54:47;3.58;;;2.90;;
21000;SDS011;10658;50.920;12.238;2023-06-24T18:58:48;3.78;;;2.88;;
21000;SDS011;10658;50.920;12.238;2023-06-24T19:02:48;4.13;;;3.05;;
21000;SDS011;10658;50.920;12.238;2023-06-24T19:06:49;4.57;;;3.63;;
21000;SDS011;10658;50.920;12.238;2023-06-24T19:10:50;4.00;;;3.17;;
21000;SDS011;10658;50.920;12.238;2023-06-24T19:14:50;3.85;;;3.15;;
21000;SDS011;10658;50.920;12.238;2023-06-24T19:18:51;3.88;;;2.88;;
21000;SDS011;10658;50.920;12.238;2023-06-24T19:22:52;5.00;;;3.13;;
21000;SDS011;10658;50.920;12.238;2023-06-24T19:26:53;4.30;;;3.03;;
21000;SDS011;10658;50.920;12.238;2023-06-24T19:30:53;3.20;;;2.90;;
21000;SDS011;10658;50.920;12.238;2023-06-24T19:34:54;4.97;;;3.35;;
21000;SDS011;10658;50.920;12.238;2023-06-24T19:38:55;5.95;;;3.17;;
21000;SDS011;10658;50.920;12.238;2023-06-24T19:42:56;6.28;;;3.53;;
21000;SDS011;10658;50.920;12.238;2023-06-24T19:46:57;5.53;;;3.67;;
21000;SDS011;10658;50.920;12.238;2023-06-24T19:50:57;7.03;;;3.50;;
21000;SDS011;10658;50.920;12.238;2023-06-24T19:54:58;10.90;;;3.65;;
21000;SDS011;10658;50.920;12.238;2023-06-24T19:58:59;5.93;;;3.38;;
21000;SDS011;10658;50.920;12.238;2023-06-24T20:03:00;9.25;;;3.47;;
21000;SDS011;10658;50.920;12.238;2023-06-24T20:07:02;11.13;;;3.72;;
21000;SDS011;10658;50.920;12.238;2023-06-24T20:11:03;6.07;;;3.00;;
21000;SDS011;10658;50.920;12.238;2023-06-24T20:15:04;10.90;;;4.07;;
21000;SDS011;10658;50.920;12.238;2023-06-24T20:19:05;10.73;;;3.20;;
21000;SDS011;10658;50.920;12.238;2023-06-24T20:23:06;8.98;;;3.85;;
21000;SDS011;10658;50.920;12.238;2023-06-24T20:27:07;9.25;;;3.33;;
21000;SDS011;10658;50.920;12.238;2023-06-24T20:31:07;11.32;;;3.33;;
21000;SDS011;10658;50.920;12.238;2023-06-24T20:35:08;13.20;;;3.72;;
21000;SDS011;10658;50.920;12.238;2023-06-24T20:39:09;7.53;;;3.70;;
21000;SDS011;10658;50.920;12.238;2023-06-24T20:43:09;10.55;;;3.60;;
21000;SDS011;10658;50.920;12.238;2023-06-24T20:47:10;10.20;;;3.40;;
21000;SDS011;10658;50.920;12.238;2023-06-24T20:51:12;6.70;;;2.78;;
21000;SDS011;10658;50.920;12.238;2023-06-24T20:55:13;7.63;;;3.67;;
21000;SDS011;10658;50.920;12.238;2023-06-24T20:59:14;10.68;;;3.42;;
21000;SDS011;10658;50.920;12.238;2023-06-24T21:03:14;8.82;;;3.53;;
21000;SDS011;10658;50.920;12.238;2023-06-24T21:07:15;13.98;;;3.95;;
21000;SDS011;10658;50.920;12.238;2023-06-24T21:11:16;5.30;;;2.65;;
21000;SDS011;10658;50.920;12.238;2023-06-24T21:15:17;10.55;;;3.50;;
21000;SDS011;10658;50.920;12.238;2023-06-24T21:19:18;10.63;;;3.80;;
21000;SDS011;10658;50.920;12.238;2023-06-24T21:23:18;8.25;;;3.20;;
21000;SDS011;10658;50.920;12.238;2023-06-24T21:27:19;12.43;;;3.38;;
21000;SDS011;10658;50.920;12.238;2023-06-24T21:31:20;7.68;;;3.10;;
21000;SDS011;10658;50.920;12.238;2023-06-24T21:35:21;8.38;;;3.25;;
21000;SDS011;10658;50.920;12.238;2023-06-24T21:39:21;11.80;;;3.33;;
21000;SDS011;10658;50.920;12.238;2023-06-24T21:43:22;15.88;;;3.20;;
21000;SDS011;10658;50.920;12.238;2023-06-24T21:47:23;8.57;;;2.85;;
21000;SDS011;10658;50.920;12.238;2023-06-24T21:51:23;11.57;;;2.95;;
21000;SDS011;10658;50.920;12.238;2023-06-24T21:55:24;7.47;;;3.35;;
21000;SDS011;10658;50.920;12.238;2023-06-24T21:59:25;10.90;;;3.47;;
21000;SDS011;10658;50.920;12.238;2023-06-24T22:03:27;9.95;;;2.90;;
21000;SDS011;10658;50.920;12.238;2023-06-24T22:07:28;7.15;;;3.28;;
21000;SDS011;10658;50.920;12.238;2023-06-24T22:11:29;9.38;;;3.67;;
21000;SDS011;10658;50.920;12.238;2023-06-24T22:15:29;15.15;;;3.13;;
21000;SDS011;10658;50.920;12.238;2023-06-24T22:19:30;8.73;;;3.45;;
21000;SDS011;10658;50.920;12.238;2023-06-24T22:23:31;3.97;;;2.47;;
21000;SDS011;10658;50.920;12.238;2023-06-24T22:27:32;8.65;;;3.58;;
21000;SDS011;10658;50.920;12.238;2023-06-24T22:31:32;10.73;;;3.33;;
21000;SDS011;10658;50.920;12.238;2023-06-24T22:35:33;10.27;;;3.25;;
21000;SDS011;10658;50.920;12.238;2023-06-24T22:39:34;6.13;;;2.63;;
21000;SDS011;10658;50.920;12.238;2023-06-24T22:43:35;17.63;;;3.55;;
21000;SDS011;10658;50.920;12.238;2023-06-24T22:47:36;6.07;;;3.65;;
21000;SDS011;10658;50.920;12.238;2023-06-24T22:51:36;6.20;;;2.92;;
21000;SDS011;10658;50.920;12.238;2023-06-24T22:55:37;9.48;;;2.88;;
21000;SDS011;10658;50.920;12.238;2023-06-24T22:59:38;15.63;;;3.20;;
21000;SDS011;10658;50.920;12.238;2023-06-24T23:03:39;8.30;;;2.63;;
21000;SDS011;10658;50.920;12.238;2023-06-24T23:07:40;5.43;;;3.00;;
21000;SDS011;10658;50.920;12.238;2023-06-24T23:11:41;9.48;;;3.10;;
21000;SDS011;10658;50.920;12.238;2023-06-24T23:15:43;6.80;;;3.28;;
21000;SDS011;10658;50.920;12.238;2023-06-24T23:19:45;6.05;;;3.35;;
21000;SDS011;10658;50.920;12.238;2023-06-24T23:23:47;4.55;;;2.55;;
21000;SDS011;10658;50.920;12.238;2023-06-24T23:27:51;8.40;;;2.45;;
21000;SDS011;10658;50.920;12.238;2023-06-24T23:31:56;6.47;;;3.00;;
21000;SDS011;10658;50.920;12.238;2023-06-24T23:35:58;8.40;;;3.00;;
21000;SDS011;10658;50.920;12.238;2023-06-24T23:39:59;6.93;;;2.85;;
21000;SDS011;10658;50.920;12.238;2023-06-24T23:44:00;5.10;;;2.78;;
21000;SDS011;10658;50.920;12.238;2023-06-24T23:48:01;8.70;;;2.70;;
21000;SDS011;10658;50.920;12.238;2023-06-24T23:52:02;6.93;;;2.40;;
21000;SDS011;10658;50.920;12.238;2023-06-24T23:56:04;4.68;;;2.53;;
